createdAt,value
2022-09-28T00:04:33.067Z,3.88
2022-09-28T00:09:34.744Z,3.53
2022-09-28T00:14:37.001Z,3.30
2022-09-28T00:19:40.320Z,2.67
2022-09-28T00:24:41.971Z,2.35
2022-09-28T00:29:43.798Z,1.80
2022-09-28T00:34:48.909Z,1.80
2022-09-28T00:39:50.669Z,1.60
2022-09-28T00:44:59.297Z,1.50
2022-09-28T00:50:02.752Z,1.70
2022-09-28T00:55:09.479Z,1.27
2022-09-28T01:00:12.011Z,1.20
2022-09-28T01:05:14.781Z,1.20
2022-09-28T01:10:16.614Z,1.13
2022-09-28T01:15:21.730Z,1.10
2022-09-28T01:20:54.060Z,0.85
2022-09-28T01:26:18.687Z,0.80
2022-09-28T01:31:25.819Z,0.70
2022-09-28T01:36:30.069Z,0.85
2022-09-28T01:41:36.605Z,1.10
2022-09-28T01:46:45.089Z,1.02
2022-09-28T01:52:17.279Z,1.10
2022-09-28T01:57:39.229Z,1.00
2022-09-28T02:02:53.950Z,1.00
2022-09-28T02:08:08.751Z,1.20
2022-09-28T02:13:32.921Z,1.00
2022-09-28T02:18:35.511Z,0.85
2022-09-28T02:23:41.573Z,1.10
2022-09-28T02:28:43.360Z,1.05
2022-09-28T02:33:47.356Z,1.00
2022-09-28T02:38:49.028Z,1.10
2022-09-28T02:44:10.413Z,1.10
2022-09-28T02:49:37.660Z,0.70
2022-09-28T02:54:59.471Z,1.10
2022-09-28T03:00:10.602Z,0.85
2022-09-28T03:05:25.576Z,1.10
2022-09-28T03:10:59.534Z,1.00
2022-09-28T03:16:21.585Z,0.90
2022-09-28T03:21:24.774Z,0.68
2022-09-28T03:26:26.540Z,0.80
2022-09-28T03:31:28.376Z,0.80
2022-09-28T03:36:30.136Z,0.73
2022-09-28T03:41:31.919Z,0.77
2022-09-28T03:46:33.647Z,0.70
2022-09-28T03:51:40.560Z,0.80
2022-09-28T03:56:43.647Z,0.90
2022-09-28T04:01:45.464Z,0.90
2022-09-28T04:06:47.443Z,1.20
2022-09-28T04:12:03.221Z,1.05
2022-09-28T04:17:07.140Z,0.70
2022-09-28T04:22:09.181Z,0.70
2022-09-28T04:27:29.615Z,0.70
2022-09-28T04:32:31.705Z,1.05
2022-09-28T04:37:33.751Z,1.42
2022-09-28T04:42:36.799Z,1.40
2022-09-28T04:47:38.548Z,1.30
2022-09-28T04:52:53.026Z,0.93
2022-09-28T04:57:54.715Z,1.10
2022-09-28T05:02:56.496Z,1.15
2022-09-28T05:08:17.142Z,0.90
2022-09-28T05:13:20.933Z,0.93
2022-09-28T05:18:23.032Z,0.95
2022-09-28T05:23:34.878Z,1.00
2022-09-28T05:28:36.850Z,1.65
2022-09-28T05:34:10.575Z,1.50
2022-09-28T05:39:12.611Z,1.60
2022-09-28T05:44:14.327Z,1.70
2022-09-28T05:49:17.194Z,1.77
2022-09-28T05:54:19.186Z,2.00
2022-09-28T05:59:21.844Z,1.83
2022-09-28T06:04:24.299Z,1.60
2022-09-28T06:09:26.408Z,1.42
2022-09-28T06:19:53.144Z,1.15
2022-09-28T06:25:00.908Z,1.40
2022-09-28T06:30:03.019Z,1.20
2022-09-28T06:35:05.504Z,0.80
2022-09-28T06:40:08.179Z,0.80
2022-09-28T06:45:10.980Z,0.77
2022-09-28T06:50:32.246Z,0.80
2022-09-28T06:56:12.488Z,0.95
2022-09-28T07:01:14.328Z,0.80
2022-09-28T07:06:24.038Z,0.65
2022-09-28T07:11:44.662Z,0.73
2022-09-28T07:17:13.726Z,0.60
2022-09-28T07:22:19.357Z,0.70
2022-09-28T07:27:25.535Z,1.17
2022-09-28T07:32:48.379Z,0.60
2022-09-28T07:38:16.450Z,0.90
2022-09-28T07:43:21.670Z,1.08
2022-09-28T07:48:25.970Z,1.20
2022-09-28T07:53:45.857Z,1.00
2022-09-28T07:59:17.500Z,0.80
2022-09-28T08:04:38.240Z,0.47
2022-09-28T08:09:40.211Z,0.80
2022-09-28T08:15:02.087Z,1.13
2022-09-28T08:20:58.271Z,0.50
2022-09-28T08:26:00.481Z,0.60
2022-09-28T08:31:03.142Z,0.40
2022-09-28T08:36:44.476Z,0.50
2022-09-28T08:42:38.765Z,0.70
2022-09-28T08:48:40.854Z,1.10
2022-09-28T08:54:40.487Z,0.82
2022-09-28T08:59:48.948Z,0.50
2022-09-28T09:04:57.084Z,0.60
2022-09-28T09:10:22.353Z,0.80
2022-09-28T09:15:54.079Z,0.90
2022-09-28T09:21:41.602Z,1.20
2022-09-28T09:26:43.458Z,1.10
2022-09-28T09:31:59.418Z,0.80
2022-09-28T09:37:19.388Z,1.00
2022-09-28T09:43:14.325Z,0.88
2022-09-28T09:48:27.034Z,0.80
2022-09-28T09:53:40.586Z,1.30
2022-09-28T09:58:57.362Z,0.70
2022-09-28T10:04:14.306Z,0.60
2022-09-28T10:09:38.016Z,0.77
2022-09-28T10:15:09.197Z,1.20
2022-09-28T10:20:25.471Z,1.20
2022-09-28T10:25:45.016Z,1.30
2022-09-28T10:35:49.019Z,1.08
2022-09-28T10:40:54.381Z,1.00
2022-09-28T10:46:11.993Z,0.90
2022-09-28T10:51:16.145Z,1.05
2022-09-28T10:56:22.898Z,1.20
2022-09-28T11:01:33.592Z,1.20
2022-09-28T11:06:39.024Z,0.90
2022-09-28T11:11:43.863Z,1.40
2022-09-28T11:16:46.063Z,0.57
2022-09-28T11:21:48.662Z,0.80
2022-09-28T11:27:00.488Z,0.90
2022-09-28T11:32:05.929Z,0.70
2022-09-28T11:37:40.172Z,0.60
2022-09-28T11:43:15.782Z,0.50
2022-09-28T11:48:25.576Z,0.50
2022-09-28T11:53:45.266Z,0.60
2022-09-28T11:58:50.762Z,0.50
2022-09-28T12:04:02.717Z,0.60
2022-09-28T12:09:22.213Z,0.40
2022-09-28T12:14:38.234Z,0.40
2022-09-28T12:19:48.629Z,0.50
2022-09-28T12:24:55.337Z,0.30
2022-09-28T12:30:04.020Z,1.00
2022-09-28T12:35:12.990Z,0.38
2022-09-28T12:40:38.106Z,0.50
2022-09-28T12:46:12.769Z,0.60
2022-09-28T12:51:50.201Z,0.30
2022-09-28T12:57:21.817Z,0.30
2022-09-28T13:02:27.001Z,0.43
2022-09-28T13:08:31.319Z,0.30
2022-09-28T13:13:32.929Z,0.20
2022-09-28T13:18:45.494Z,0.30
2022-09-28T13:23:49.691Z,0.35
2022-09-28T13:33:57.338Z,0.40
2022-09-28T13:39:00.694Z,0.40
2022-09-28T13:44:11.984Z,0.70
2022-09-28T13:49:38.185Z,0.50
2022-09-28T13:54:51.626Z,0.60
2022-09-28T14:00:22.234Z,0.67
2022-09-28T14:05:30.223Z,0.70
2022-09-28T14:10:53.511Z,0.40
2022-09-28T14:16:18.356Z,0.50
2022-09-28T14:21:31.880Z,0.95
2022-09-28T14:26:58.363Z,0.30
2022-09-28T14:32:09.335Z,0.50
2022-09-28T14:37:58.469Z,0.70
2022-09-28T14:43:24.976Z,0.40
2022-09-28T14:49:07.313Z,0.40
2022-09-28T14:54:10.133Z,0.50
2022-09-28T14:59:19.506Z,0.50
2022-09-28T15:04:25.808Z,0.32
2022-09-28T15:09:33.673Z,0.60
2022-09-28T15:14:46.097Z,0.50
2022-09-28T15:20:02.541Z,0.50
2022-09-28T15:25:14.391Z,0.40
2022-09-28T15:30:25.422Z,0.50
2022-09-28T15:35:28.250Z,0.60
2022-09-28T15:40:38.879Z,0.63
2022-09-28T15:45:41.202Z,1.13
2022-09-28T15:56:09.848Z,0.50
2022-09-28T16:01:22.125Z,0.80
2022-09-28T16:06:23.884Z,0.90
2022-09-28T16:11:36.431Z,1.00
2022-09-28T16:16:46.984Z,0.50
2022-09-28T16:21:52.677Z,0.50
2022-09-28T16:27:01.120Z,0.50
2022-09-28T16:32:41.751Z,0.60
2022-09-28T16:37:43.547Z,0.85
2022-09-28T16:42:49.141Z,1.17
2022-09-28T16:47:52.952Z,1.10
2022-09-28T16:53:20.255Z,0.90
2022-09-28T16:58:22.495Z,1.55
2022-09-28T17:03:25.117Z,1.50
2022-09-28T17:08:30.274Z,0.90
2022-09-28T17:13:33.778Z,1.10
2022-09-28T17:18:39.078Z,2.20
2022-09-28T17:23:41.226Z,2.20
2022-09-28T17:28:42.876Z,1.60
2022-09-28T17:33:44.716Z,1.38
2022-09-28T17:38:49.269Z,1.27
2022-09-28T17:43:50.946Z,1.85
2022-09-28T17:48:52.889Z,2.05
2022-09-28T17:53:56.122Z,1.60
2022-09-28T17:59:00.897Z,1.58
2022-09-28T18:04:04.932Z,1.67
2022-09-28T18:09:08.602Z,3.55
2022-09-28T18:14:11.312Z,5.80
2022-09-28T18:19:13.398Z,4.57
2022-09-28T18:24:15.349Z,2.35
2022-09-28T18:29:20.037Z,2.10
2022-09-28T18:34:21.744Z,1.90
2022-09-28T18:39:23.941Z,1.30
2022-09-28T18:44:25.608Z,1.10
2022-09-28T18:49:27.312Z,1.20
2022-09-28T18:54:29.030Z,1.00
2022-09-28T18:59:30.758Z,1.00
2022-09-28T19:04:32.448Z,1.05
2022-09-28T19:09:34.440Z,1.40
2022-09-28T19:14:36.136Z,1.27
2022-09-28T19:19:38.213Z,0.90
2022-09-28T19:24:40.030Z,1.00
2022-09-28T19:29:41.765Z,1.00
2022-09-28T19:34:43.519Z,1.15
2022-09-28T19:39:45.386Z,0.77
2022-09-28T19:44:47.362Z,0.90
2022-09-28T19:49:49.893Z,1.00
2022-09-28T19:55:01.530Z,1.00
2022-09-28T20:00:04.303Z,0.77
2022-09-28T20:05:09.012Z,1.00
2022-09-28T20:10:11.915Z,1.10
2022-09-28T20:15:13.750Z,1.10
2022-09-28T20:20:15.509Z,1.20
2022-09-28T20:25:18.032Z,0.90
2022-09-28T20:30:20.653Z,1.10
2022-09-28T20:35:32.072Z,1.00
2022-09-28T20:40:36.460Z,1.08
2022-09-28T20:45:38.260Z,1.37
2022-09-28T20:50:41.209Z,0.82
2022-09-28T21:00:46.098Z,1.20
2022-09-28T21:05:50.742Z,1.30
2022-09-28T21:10:56.172Z,1.30
2022-09-28T21:16:01.969Z,1.50
2022-09-28T21:21:07.139Z,1.50
2022-09-28T21:26:11.357Z,1.42
2022-09-28T21:31:14.497Z,1.40
2022-09-28T21:36:16.258Z,1.90
2022-09-28T21:41:17.968Z,1.80
2022-09-28T21:46:20.195Z,1.60
2022-09-28T21:51:22.033Z,1.40
2022-09-28T21:56:23.850Z,2.00
2022-09-28T22:01:26.032Z,1.90
2022-09-28T22:06:28.431Z,1.92
2022-09-28T22:11:30.388Z,1.92
2022-09-28T22:16:32.357Z,2.25
2022-09-28T22:21:34.860Z,2.25
2022-09-28T22:26:37.567Z,3.17
2022-09-28T22:31:40.649Z,2.58
2022-09-28T22:36:42.586Z,2.35
2022-09-28T22:41:44.362Z,1.92
2022-09-28T22:46:46.565Z,2.08
2022-09-28T22:51:48.601Z,1.77
2022-09-28T22:56:50.370Z,2.42
2022-09-28T23:01:52.154Z,2.25
2022-09-28T23:11:58.248Z,2.30
2022-09-28T23:17:00.004Z,2.08
2022-09-28T23:22:01.712Z,2.17
2022-09-28T23:27:03.655Z,2.35
2022-09-28T23:32:05.380Z,4.00
2022-09-28T23:37:07.090Z,2.90
2022-09-28T23:42:09.521Z,2.70
2022-09-28T23:47:11.277Z,2.72
2022-09-28T23:52:14.262Z,2.38
2022-09-28T23:57:15.993Z,2.70
